Time;durP1;ratioP1;P1;durP2;ratioP2;P2;SDS_P1;SDS_P2;PMS_P1;PMS_P2;Temp;Humidity;BMP_temperature;BMP_pressure;BME280_temperature;BME280_humidity;BME280_pressure;Samples;Min_cycle;Max_cycle;Signal;HPM_P1;HPM_P2
2021/05/03 00:03:24;;;;;;;7.32;1.70;;;;;;;-146.18;100.00;67994.34;9991253;29;20048;-68
2021/05/03 00:08:20;;;;;;;6.68;1.60;;;;;;;-146.18;100.00;67994.34;9975206;29;20741;-69
2021/05/03 00:13:16;;;;;;;4.07;1.25;;;;;;;-146.18;100.00;67994.34;9990789;29;20048;-69
2021/05/03 00:18:12;;;;;;;9.60;1.83;;;;;;;-146.18;100.00;67994.34;9985546;29;20044;-69
2021/05/03 00:23:08;;;;;;;7.03;1.77;;;;;;;-146.18;100.00;67994.34;9993327;29;20495;-68
2021/05/03 00:28:04;;;;;;;10.05;2.30;;;;;;;-146.18;100.00;67994.34;9990470;29;20044;-69
2021/05/03 00:33:01;;;;;;;7.93;1.50;;;;;;;-146.18;100.00;67994.34;9991720;29;20130;-69
2021/05/03 00:37:57;;;;;;;4.72;1.55;;;;;;;-146.18;100.00;67994.34;9991442;29;20052;-69
2021/05/03 00:42:53;;;;;;;5.93;1.90;;;;;;;-146.18;100.00;67994.34;9991231;29;20120;-69
2021/05/03 00:47:50;;;;;;;4.72;1.60;;;;;;;-146.18;100.00;67994.34;9989261;29;20055;-69
2021/05/03 00:52:46;;;;;;;10.50;1.77;;;;;;;-146.18;100.00;67994.34;9988680;29;20055;-68
2021/05/03 00:57:42;;;;;;;6.10;1.58;;;;;;;-146.18;100.00;67994.34;9986831;29;20059;-69
2021/05/03 01:02:39;;;;;;;5.38;2.10;;;;;;;-146.18;100.00;67994.34;9996205;29;20090;-67
2021/05/03 01:07:35;;;;;;;6.57;1.42;;;;;;;-146.18;100.00;67994.34;9985771;29;20079;-67
2021/05/03 01:12:31;;;;;;;8.00;1.65;;;;;;;-146.18;100.00;67994.34;9990802;29;20044;-68
2021/05/03 01:17:32;;;;;;;8.50;2.20;;;;;;;-146.18;100.00;67994.34;9978435;29;20040;-68
2021/05/03 01:22:32;;;;;;;8.27;1.70;;;;;;;-146.18;100.00;67994.34;9993137;29;20056;-68
2021/05/03 01:27:28;;;;;;;10.60;2.33;;;;;;;-146.18;100.00;67994.34;9984379;29;20068;-67
2021/05/03 01:32:24;;;;;;;8.40;2.83;;;;;;;-146.18;100.00;67994.34;9990056;29;20090;-67
2021/05/03 01:37:21;;;;;;;7.32;2.42;;;;;;;-146.18;100.00;67994.34;9989712;29;20079;-68
2021/05/03 01:42:17;;;;;;;5.80;3.13;;;;;;;-146.18;100.00;67994.34;9984492;29;20052;-72
2021/05/03 01:47:13;;;;;;;8.25;3.25;;;;;;;-146.18;100.00;67994.34;9990916;29;20079;-70
2021/05/03 01:52:10;;;;;;;6.32;3.72;;;;;;;-146.18;100.00;67994.34;9995235;29;20688;-71
2021/05/03 01:57:07;;;;;;;8.02;2.78;;;;;;;-146.18;100.00;67994.34;9983289;29;20467;-68
2021/05/03 02:02:03;;;;;;;8.98;3.08;;;;;;;-146.18;100.00;67994.34;9992827;29;20048;-69
2021/05/03 02:06:59;;;;;;;6.78;2.80;;;;;;;-146.18;100.00;67994.34;9984908;29;20131;-69
2021/05/03 02:11:55;;;;;;;6.03;2.70;;;;;;;-146.18;100.00;67994.34;9992576;29;20056;-68
2021/05/03 02:16:51;;;;;;;8.15;3.22;;;;;;;-146.18;100.00;67994.34;9970594;29;20044;-69
2021/05/03 02:21:47;;;;;;;6.47;2.63;;;;;;;-146.18;100.00;67994.34;9988353;29;20052;-69
2021/05/03 02:26:43;;;;;;;6.35;2.80;;;;;;;-146.18;100.00;67994.34;9986657;29;20048;-67
2021/05/03 02:31:39;;;;;;;7.00;2.08;;;;;;;-146.18;100.00;67994.34;9991380;29;20505;-69
2021/05/03 02:36:36;;;;;;;4.75;2.08;;;;;;;-146.18;100.00;67994.34;9980385;29;20044;-68
2021/05/03 02:41:32;;;;;;;9.90;1.98;;;;;;;-146.18;100.00;67994.34;9981920;29;20048;-65
2021/05/03 02:46:29;;;;;;;6.53;2.75;;;;;;;-146.18;100.00;67994.34;9976417;29;20108;-68
2021/05/03 02:51:27;;;;;;;6.53;2.40;;;;;;;-146.18;100.00;67994.34;9983838;29;20563;-68
2021/05/03 02:56:23;;;;;;;5.35;2.30;;;;;;;-146.18;100.00;67994.34;9982259;29;20115;-68
2021/05/03 03:01:20;;;;;;;4.72;2.03;;;;;;;-146.18;100.00;67994.34;9982801;29;20040;-69
2021/05/03 03:06:16;;;;;;;5.25;2.22;;;;;;;-146.18;100.00;67994.34;9984967;29;20083;-67
2021/05/03 03:11:12;;;;;;;4.85;2.05;;;;;;;-146.18;100.00;67994.34;9991271;29;20135;-66
2021/05/03 03:16:10;;;;;;;5.93;2.03;;;;;;;-146.18;100.00;67994.34;9988832;29;20044;-66
2021/05/03 03:21:06;;;;;;;4.80;2.13;;;;;;;-146.18;100.00;67994.34;9981711;29;20091;-66
2021/05/03 03:26:02;;;;;;;6.25;2.50;;;;;;;-146.18;100.00;67994.34;9983504;29;20051;-66
2021/05/03 03:30:58;;;;;;;6.53;2.88;;;;;;;-146.18;100.00;67994.34;9984618;29;20079;-70
2021/05/03 03:35:54;;;;;;;7.68;2.95;;;;;;;-146.18;100.00;67994.34;9986038;29;20142;-70
2021/05/03 03:40:50;;;;;;;6.57;3.03;;;;;;;-146.18;100.00;67994.34;9987878;29;20522;-70
2021/05/03 03:45:46;;;;;;;7.07;3.20;;;;;;;-146.18;100.00;67994.34;9985649;29;20044;-70
2021/05/03 03:50:42;;;;;;;7.10;3.20;;;;;;;-146.18;100.00;67994.34;9993418;29;20040;-70
2021/05/03 03:55:42;;;;;;;9.35;3.80;;;;;;;-146.18;100.00;67994.34;9992732;29;20051;-70
2021/05/03 04:00:38;;;;;;;7.20;3.13;;;;;;;-146.18;100.00;67994.34;9983762;29;20111;-70
2021/05/03 04:21:34;;;;;;;9.77;3.13;;;;;;;-146.18;100.00;67994.34;9979852;29;20115;-66
2021/05/03 04:26:30;;;;;;;8.67;3.50;;;;;;;-146.18;100.00;67994.34;9975455;29;20040;-71
2021/05/03 04:31:26;;;;;;;5.28;2.95;;;;;;;-146.18;100.00;67994.34;9991578;29;20082;-70
2021/05/03 04:36:23;;;;;;;5.38;3.33;;;;;;;-146.18;100.00;67994.34;9990267;29;20048;-71
2021/05/03 04:41:19;;;;;;;9.27;2.90;;;;;;;-146.18;100.00;67994.34;9988603;29;20052;-68
2021/05/03 04:46:17;;;;;;;5.80;2.95;;;;;;;-146.18;100.00;67994.34;9997224;29;20135;-70
2021/05/03 04:51:14;;;;;;;7.70;3.00;;;;;;;-146.18;100.00;67994.34;9979225;29;20084;-71
2021/05/03 04:56:10;;;;;;;4.95;2.55;;;;;;;-146.18;100.00;67994.34;9990078;29;20048;-71
2021/05/03 05:01:06;;;;;;;7.82;2.83;;;;;;;-146.18;100.00;67994.34;9986855;29;20502;-70
2021/05/03 05:06:02;;;;;;;6.90;2.95;;;;;;;-146.18;100.00;67994.34;9977579;29;20084;-69
2021/05/03 05:10:58;;;;;;;5.45;2.88;;;;;;;-146.18;100.00;67994.34;9971387;29;20048;-69
2021/05/03 05:15:54;;;;;;;7.18;2.80;;;;;;;-146.18;100.00;67994.34;9984753;29;20096;-69
2021/05/03 05:20:53;;;;;;;8.05;3.65;;;;;;;-146.18;100.00;67994.34;9982950;29;20266;-72
2021/05/03 05:25:49;;;;;;;9.25;3.42;;;;;;;-146.18;100.00;67994.34;9983885;29;20045;-71
2021/05/03 05:30:45;;;;;;;6.28;3.25;;;;;;;-146.18;100.00;67994.34;9975654;29;20096;-72
2021/05/03 05:35:41;;;;;;;6.05;2.90;;;;;;;-146.18;100.00;67994.34;9974984;29;20055;-69
2021/05/03 05:40:37;;;;;;;10.82;3.80;;;;;;;-146.18;100.00;67994.34;9983176;29;20053;-68
2021/05/03 05:45:33;;;;;;;6.63;3.15;;;;;;;-146.18;100.00;67994.34;9985213;29;20108;-71
2021/05/03 05:50:29;;;;;;;6.53;3.28;;;;;;;-146.18;100.00;67994.34;9977354;29;20153;-75
2021/05/03 05:55:25;;;;;;;8.43;2.78;;;;;;;-146.18;100.00;67994.34;9971937;29;20048;-72
2021/05/03 06:00:21;;;;;;;5.93;2.78;;;;;;;-146.18;100.00;67994.34;9978507;29;20048;-71
2021/05/03 06:05:18;;;;;;;8.60;2.90;;;;;;;-146.18;100.00;67994.34;9976790;29;20112;-71
2021/05/03 06:10:14;;;;;;;5.22;2.72;;;;;;;-146.18;100.00;67994.34;9974365;29;20342;-72
2021/05/03 06:15:10;;;;;;;7.38;2.85;;;;;;;-146.18;100.00;67994.34;9981926;29;20060;-70
2021/05/03 06:20:07;;;;;;;5.20;2.58;;;;;;;-146.18;100.00;67994.34;9975270;29;20157;-71
2021/05/03 06:25:06;;;;;;;7.07;2.42;;;;;;;-146.18;100.00;67994.34;9976255;29;20423;-72
2021/05/03 06:30:05;;;;;;;8.18;2.95;;;;;;;-146.18;100.00;67994.34;9978177;29;20048;-68
2021/05/03 06:35:01;;;;;;;5.10;2.65;;;;;;;-146.18;100.00;67994.34;9982603;29;20108;-70
2021/05/03 06:39:57;;;;;;;8.82;2.60;;;;;;;-146.18;100.00;67994.34;9973433;29;20083;-71
2021/05/03 06:44:52;;;;;;;7.43;2.80;;;;;;;-146.18;100.00;67994.34;9981487;29;20298;-73
2021/05/03 06:49:49;;;;;;;8.40;2.72;;;;;;;-146.18;100.00;67994.34;9971218;29;20052;-70
2021/05/03 06:54:45;;;;;;;9.73;2.78;;;;;;;-146.18;100.00;67994.34;9983268;29;20070;-69
2021/05/03 06:59:41;;;;;;;5.35;2.92;;;;;;;-146.18;100.00;67994.34;9971306;29;20522;-70
2021/05/03 07:04:37;;;;;;;5.03;2.58;;;;;;;-146.18;100.00;67994.34;9964812;29;20049;-68
2021/05/03 07:09:34;;;;;;;3.95;2.05;;;;;;;-146.18;100.00;67994.34;9970543;29;20075;-69
2021/05/03 07:14:30;;;;;;;5.22;1.98;;;;;;;-146.18;100.00;67994.34;9957833;29;20143;-70
2021/05/03 07:19:26;;;;;;;5.80;1.73;;;;;;;-146.18;100.00;67994.34;9971098;29;20044;-69
2021/05/03 07:24:22;;;;;;;4.45;1.80;;;;;;;-146.18;100.00;67994.34;9973527;29;20071;-69
2021/05/03 07:29:18;;;;;;;7.47;1.75;;;;;;;-146.18;100.00;67994.34;9973444;29;20076;-70
2021/05/03 07:34:17;;;;;;;3.97;1.70;;;;;;;-146.18;100.00;67994.34;9987863;29;20135;-68
2021/05/03 07:39:13;;;;;;;6.88;1.90;;;;;;;-146.18;100.00;67994.34;9985063;29;20599;-69
2021/05/03 07:44:09;;;;;;;4.57;1.77;;;;;;;-146.18;100.00;67994.34;9978901;29;20052;-69
2021/05/03 07:49:06;;;;;;;5.60;1.80;;;;;;;-146.18;100.00;67994.34;9982505;29;20051;-71
2021/05/03 07:54:03;;;;;;;6.90;1.67;;;;;;;-146.18;100.00;67994.34;9982104;29;20052;-70
2021/05/03 07:58:59;;;;;;;3.53;1.27;;;;;;;-146.18;100.00;67994.34;9986043;29;20119;-70
2021/05/03 08:03:55;;;;;;;4.53;1.50;;;;;;;-146.18;100.00;67994.34;9977910;29;20574;-71
2021/05/03 08:08:51;;;;;;;7.22;1.58;;;;;;;-146.18;100.00;67994.34;9982154;29;20051;-71
2021/05/03 08:13:47;;;;;;;4.00;1.50;;;;;;;-146.18;100.00;67994.34;9957702;29;20454;-69
2021/05/03 08:18:45;;;;;;;4.35;1.30;;;;;;;-146.18;100.00;67994.34;9966839;29;20668;-70
2021/05/03 08:23:41;;;;;;;3.42;1.40;;;;;;;-146.18;100.00;67994.34;9975944;29;20585;-69
2021/05/03 08:28:40;;;;;;;6.03;1.70;;;;;;;-146.18;100.00;67994.34;9967751;29;20076;-69
2021/05/03 08:33:36;;;;;;;6.55;1.85;;;;;;;-146.18;100.00;67994.34;9988595;29;20091;-70
2021/05/03 08:38:34;;;;;;;4.30;1.63;;;;;;;-146.18;100.00;67994.34;9979910;29;20406;-71
2021/05/03 08:43:33;;;;;;;5.47;1.90;;;;;;;-146.18;100.00;67994.34;9981260;29;20194;-71
2021/05/03 08:53:37;;;;;;;5.28;1.90;;;;;;;-146.18;100.00;67994.34;9988057;29;20065;-71
2021/05/03 08:58:40;;;;;;;3.35;1.83;;;;;;;-146.18;100.00;67994.34;9993067;29;20072;-68
2021/05/03 09:03:40;;;;;;;7.37;1.30;;;;;;;-146.18;100.00;67994.34;9988051;29;20099;-68
2021/05/03 09:08:36;;;;;;;6.07;1.60;;;;;;;-146.18;100.00;67994.34;9989733;29;20052;-68
2021/05/03 09:13:37;;;;;;;5.28;1.75;;;;;;;-146.18;100.00;67994.34;9992923;29;20144;-69
2021/05/03 09:18:33;;;;;;;4.57;1.60;;;;;;;-146.18;100.00;67994.34;9981799;29;20037;-71
2021/05/03 09:23:29;;;;;;;5.80;2.35;;;;;;;-146.18;100.00;67994.34;9989762;29;20059;-70
2021/05/03 09:28:25;;;;;;;3.95;1.92;;;;;;;-146.18;100.00;67994.34;9987112;29;20567;-68
2021/05/03 09:33:31;;;;;;;5.45;2.60;;;;;;;-146.18;100.00;67994.34;9986486;29;20049;-68
2021/05/03 09:38:30;;;;;;;4.75;2.28;;;;;;;-146.18;100.00;67994.34;9987838;29;20055;-67
2021/05/03 09:43:26;;;;;;;6.50;2.53;;;;;;;-146.18;100.00;67994.34;9976475;29;20096;-70
2021/05/03 09:48:22;;;;;;;4.60;2.97;;;;;;;-146.18;100.00;67994.34;9977802;29;20063;-68
2021/05/03 09:53:18;;;;;;;4.80;2.45;;;;;;;-146.18;100.00;67994.34;9969539;29;20068;-69
2021/05/03 09:58:20;;;;;;;6.30;4.10;;;;;;;-146.18;100.00;67994.34;9975757;29;20521;-69
2021/05/03 10:03:46;;;;;;;6.25;4.40;;;;;;;-146.18;100.00;67994.34;9979658;29;20127;-66
2021/05/03 10:08:47;;;;;;;5.65;4.10;;;;;;;-146.18;100.00;67994.34;9972254;29;20127;-65
2021/05/03 10:13:47;;;;;;;14.38;4.38;;;;;;;-146.18;100.00;67994.34;9981409;29;20060;-68
2021/05/03 10:18:43;;;;;;;6.18;4.15;;;;;;;-146.18;100.00;67994.34;9971912;29;20076;-69
2021/05/03 10:23:43;;;;;;;5.13;3.45;;;;;;;-146.18;100.00;67994.34;9979424;29;20459;-69
2021/05/03 10:28:49;;;;;;;5.85;3.33;;;;;;;-146.18;100.00;67994.34;9970398;29;20080;-67
2021/05/03 10:33:45;;;;;;;4.88;2.47;;;;;;;-146.18;100.00;67994.34;9975167;29;20051;-67
2021/05/03 10:38:42;;;;;;;4.30;2.45;;;;;;;-146.18;100.00;67994.34;9969298;29;20690;-68
2021/05/03 10:43:43;;;;;;;4.97;2.28;;;;;;;-146.18;100.00;67994.34;9973318;29;20503;-68
2021/05/03 10:53:45;;;;;;;4.40;2.70;;;;;;;-146.18;100.00;67994.34;9987128;29;20052;-69
2021/05/03 10:58:53;;;;;;;5.65;3.80;;;;;;;-146.18;100.00;67994.34;9981461;29;20902;-68
2021/05/03 11:03:55;;;;;;;5.53;3.45;;;;;;;-146.18;100.00;67994.34;9983930;29;20107;-68
2021/05/03 11:09:42;;;;;;;7.05;4.65;;;;;;;-146.18;100.00;67994.34;9978655;29;20052;-67
2021/05/03 11:15:02;;;;;;;6.40;4.20;;;;;;;-146.18;100.00;67994.34;9970155;29;20052;-69
2021/05/03 11:20:10;;;;;;;4.75;3.67;;;;;;;-146.18;100.00;67994.34;9986390;29;20154;-69
2021/05/03 11:25:26;;;;;;;5.95;3.65;;;;;;;-146.18;100.00;67994.34;9980254;29;20052;-67
2021/05/03 11:30:43;;;;;;;10.77;4.13;;;;;;;-146.18;100.00;67994.34;9975474;29;20075;-68
2021/05/03 11:46:05;;;;;;;6.47;4.43;;;;;;;-146.18;100.00;67994.34;9979863;29;20090;-65
2021/05/03 11:51:11;;;;;;;7.93;5.32;;;;;;;-146.18;100.00;67994.34;9981349;29;20076;-65
2021/05/03 11:56:29;;;;;;;8.10;4.65;;;;;;;-146.18;100.00;67994.34;9981321;29;20048;-65
2021/05/03 12:01:28;;;;;;;8.73;4.80;;;;;;;-146.18;100.00;67994.34;9972369;29;20041;-66
2021/05/03 12:06:33;;;;;;;8.15;5.20;;;;;;;-146.18;100.00;67994.34;9969510;29;20499;-65
2021/05/03 12:11:29;;;;;;;10.25;6.30;;;;;;;-146.18;100.00;67994.34;9985100;29;20048;-66
2021/05/03 12:16:33;;;;;;;8.45;5.50;;;;;;;-146.18;100.00;67994.34;9985187;29;20052;-65
2021/05/03 12:21:29;;;;;;;8.27;5.78;;;;;;;-146.18;100.00;67994.34;9990284;29;20100;-67
2021/05/03 12:26:25;;;;;;;8.20;5.68;;;;;;;-146.18;100.00;67994.34;9986646;29;20048;-65
2021/05/03 12:31:22;;;;;;;7.20;6.07;;;;;;;-146.18;100.00;67994.34;9988331;29;20048;-64
2021/05/03 12:36:18;;;;;;;8.60;6.78;;;;;;;-146.18;100.00;67994.34;9985921;29;20528;-63
2021/05/03 12:41:24;;;;;;;7.78;6.07;;;;;;;-146.18;100.00;67994.34;9977103;29;20136;-66
2021/05/03 12:46:32;;;;;;;8.02;6.50;;;;;;;-146.18;100.00;67994.34;9976135;29;20052;-65
2021/05/03 12:51:43;;;;;;;8.82;5.60;;;;;;;-146.18;100.00;67994.34;9974786;29;20135;-66
2021/05/03 13:02:09;;;;;;;10.00;6.65;;;;;;;-146.18;100.00;67994.34;9985455;29;20048;-66
2021/05/03 13:07:17;;;;;;;9.88;6.28;;;;;;;-146.18;100.00;67994.34;9980206;29;20044;-66
2021/05/03 13:23:10;;;;;;;8.52;6.50;;;;;;;-146.18;100.00;67994.34;9984786;29;20048;-67
2021/05/03 13:28:07;;;;;;;12.25;7.38;;;;;;;-146.18;100.00;67994.34;9966328;29;20056;-66
2021/05/03 13:33:05;;;;;;;7.35;5.88;;;;;;;-146.18;100.00;67994.34;9986898;29;20067;-67
2021/05/03 13:38:01;;;;;;;9.80;6.30;;;;;;;-146.18;100.00;67994.34;9969879;29;20154;-66
2021/05/03 13:42:59;;;;;;;8.77;6.43;;;;;;;-146.18;100.00;67994.34;9983554;29;20066;-67
2021/05/03 13:47:56;;;;;;;10.10;7.47;;;;;;;-146.18;100.00;67994.34;9977484;29;20080;-63
2021/05/03 13:52:53;;;;;;;10.13;7.95;;;;;;;-146.18;100.00;67994.34;9986809;29;20060;-65
2021/05/03 13:57:49;;;;;;;10.43;8.07;;;;;;;-146.18;100.00;67994.34;9985101;29;20485;-67
2021/05/03 14:02:45;;;;;;;11.27;8.43;;;;;;;-146.18;100.00;67994.34;9975314;29;20048;-66
2021/05/03 14:07:41;;;;;;;12.77;9.65;;;;;;;-146.18;100.00;67994.34;9983003;29;20076;-66
2021/05/03 14:12:37;;;;;;;12.80;10.10;;;;;;;-146.18;100.00;67994.34;9982014;29;20048;-66
2021/05/03 14:17:33;;;;;;;14.55;11.48;;;;;;;-146.18;100.00;67994.34;9985082;29;20048;-64
2021/05/03 14:22:29;;;;;;;17.85;12.07;;;;;;;-146.18;100.00;67994.34;9978569;29;20115;-64
2021/05/03 14:27:29;;;;;;;15.73;11.80;;;;;;;-146.18;100.00;67994.34;9980619;29;20580;-66
2021/05/03 14:37:24;;;;;;;12.45;9.18;;;;;;;-146.18;100.00;67994.34;9984182;29;20062;-67
2021/05/03 14:42:20;;;;;;;12.13;8.23;;;;;;;-146.18;100.00;67994.34;9986978;29;20075;-66
2021/05/03 14:47:39;;;;;;;10.07;7.72;;;;;;;-146.18;100.00;67994.34;9980558;29;20056;-64
2021/05/03 14:52:53;;;;;;;11.50;7.90;;;;;;;-146.18;100.00;67994.34;9972309;29;20048;-67
2021/05/03 14:57:49;;;;;;;10.07;7.63;;;;;;;-146.18;100.00;67994.34;9979569;29;20047;-67
2021/05/03 15:02:45;;;;;;;8.50;7.22;;;;;;;-146.18;100.00;67994.34;9976855;29;20479;-67
2021/05/03 15:07:41;;;;;;;13.05;7.93;;;;;;;-146.18;100.00;67994.34;9978029;29;20549;-66
2021/05/03 15:12:43;;;;;;;10.38;7.50;;;;;;;-146.18;100.00;67994.34;9974378;29;20091;-66
2021/05/03 15:22:38;;;;;;;10.55;8.05;;;;;;;-146.18;100.00;67994.34;9975688;29;20052;-67
2021/05/03 15:27:43;;;;;;;12.80;7.45;;;;;;;-146.18;100.00;67994.34;9980371;29;20048;-67
2021/05/03 15:37:50;;;;;;;9.85;7.75;;;;;;;-146.18;100.00;67994.34;9981377;29;20574;-67
2021/05/03 15:42:48;;;;;;;11.32;7.65;;;;;;;-146.18;100.00;67994.34;9987015;29;20459;-68
2021/05/03 15:47:44;;;;;;;11.57;8.07;;;;;;;-146.18;100.00;67994.34;9983248;29;20471;-64
2021/05/03 15:52:41;;;;;;;12.30;8.80;;;;;;;-146.18;100.00;67994.34;9970371;29;20048;-62
2021/05/03 15:57:37;;;;;;;12.00;8.52;;;;;;;-146.18;100.00;67994.34;9978854;29;20048;-65
2021/05/03 16:02:33;;;;;;;13.27;9.80;;;;;;;-146.18;100.00;67994.34;9974373;29;20084;-63
2021/05/03 16:07:29;;;;;;;9.95;6.97;;;;;;;-146.18;100.00;67994.34;9975109;29;20055;-65
2021/05/03 16:12:25;;;;;;;8.95;6.18;;;;;;;-146.18;100.00;67994.34;9979496;29;20063;-67
2021/05/03 16:17:21;;;;;;;10.05;6.63;;;;;;;-146.18;100.00;67994.34;9976273;29;20048;-64
2021/05/03 16:22:17;;;;;;;12.10;6.40;;;;;;;-146.18;100.00;67994.34;9980918;29;20044;-66
2021/05/03 16:27:14;;;;;;;12.25;7.80;;;;;;;-146.18;100.00;67994.34;9979239;29;20418;-67
2021/05/03 16:32:11;;;;;;;10.30;7.35;;;;;;;-146.18;100.00;67994.34;9973401;29;20055;-66
2021/05/03 16:37:09;;;;;;;10.82;7.78;;;;;;;-146.18;100.00;67994.34;9977851;29;20055;-65
2021/05/03 16:42:06;;;;;;;10.13;7.82;;;;;;;-146.18;100.00;67994.34;9980677;29;20084;-65
2021/05/03 16:47:03;;;;;;;13.45;7.78;;;;;;;-146.18;100.00;67994.34;9969871;29;20048;-67
2021/05/03 16:51:59;;;;;;;17.13;10.10;;;;;;;-146.18;100.00;67994.34;9977581;29;20400;-65
2021/05/03 16:56:55;;;;;;;11.32;9.20;;;;;;;-146.18;100.00;67994.34;9978390;29;20056;-66
2021/05/03 17:01:51;;;;;;;13.82;9.80;;;;;;;-146.18;100.00;67994.34;9982066;29;20075;-66
2021/05/03 17:06:47;;;;;;;11.00;8.18;;;;;;;-146.18;100.00;67994.34;9980319;29;20048;-64
2021/05/03 17:11:43;;;;;;;10.43;6.32;;;;;;;-146.18;100.00;67994.34;9980918;29;20048;-65
2021/05/03 17:16:44;;;;;;;9.75;7.13;;;;;;;-146.18;100.00;67994.34;9984618;29;20598;-65
2021/05/03 17:21:42;;;;;;;10.10;5.30;;;;;;;-146.18;100.00;67994.34;9984594;29;20083;-66
2021/05/03 17:26:41;;;;;;;7.53;5.00;;;;;;;-146.18;100.00;67994.34;9977678;29;20124;-65
2021/05/03 17:31:40;;;;;;;10.98;5.68;;;;;;;-146.18;100.00;67994.34;9984153;29;20056;-66
2021/05/03 17:36:42;;;;;;;8.02;5.70;;;;;;;-146.18;100.00;67994.34;9975552;29;20128;-65
2021/05/03 17:41:38;;;;;;;7.78;5.30;;;;;;;-146.18;100.00;67994.34;9982094;29;20052;-67
2021/05/03 17:46:36;;;;;;;6.97;5.00;;;;;;;-146.18;100.00;67994.34;9984857;29;20199;-66
2021/05/03 17:51:32;;;;;;;7.80;5.22;;;;;;;-146.18;100.00;67994.34;9980135;29;20063;-64
2021/05/03 17:56:29;;;;;;;9.07;5.15;;;;;;;-146.18;100.00;67994.34;9978506;29;20059;-64
2021/05/03 18:01:28;;;;;;;9.20;5.38;;;;;;;-146.18;100.00;67994.34;9976585;29;20083;-66
2021/05/03 18:06:25;;;;;;;8.65;5.95;;;;;;;-146.18;100.00;67994.34;9974311;29;20051;-65
2021/05/03 18:11:22;;;;;;;8.15;4.80;;;;;;;-146.18;100.00;67994.34;9968167;29;20510;-65
2021/05/03 18:16:18;;;;;;;8.73;5.35;;;;;;;-146.18;100.00;67994.34;9978067;29;20048;-62
2021/05/03 18:21:16;;;;;;;8.23;5.53;;;;;;;-146.18;100.00;67994.34;9986269;29;20503;-65
2021/05/03 18:26:12;;;;;;;9.93;6.78;;;;;;;-146.18;100.00;67994.34;9976736;29;20483;-65
2021/05/03 18:31:08;;;;;;;10.80;5.50;;;;;;;-146.18;100.00;67994.34;9982088;29;20048;-65
2021/05/03 18:36:05;;;;;;;8.38;5.38;;;;;;;-146.18;100.00;67994.34;9971253;29;20059;-64
2021/05/03 18:41:01;;;;;;;10.40;6.47;;;;;;;-146.18;100.00;67994.34;9985212;29;20059;-66
2021/05/03 18:45:57;;;;;;;9.18;5.97;;;;;;;-146.18;100.00;67994.34;9972914;29;20529;-65
2021/05/03 18:50:53;;;;;;;10.85;8.15;;;;;;;-146.18;100.00;67994.34;9979480;29;20052;-65
2021/05/03 18:55:50;;;;;;;10.10;7.80;;;;;;;-146.18;100.00;67994.34;9970968;29;20076;-66
2021/05/03 19:00:46;;;;;;;12.90;9.10;;;;;;;-146.18;100.00;67994.34;9978715;29;20088;-67
2021/05/03 19:05:42;;;;;;;10.68;7.38;;;;;;;-146.18;100.00;67994.34;9974097;29;20056;-66
2021/05/03 19:10:38;;;;;;;9.30;6.40;;;;;;;-146.18;100.00;67994.34;9977382;29;20063;-66
2021/05/03 19:15:34;;;;;;;8.85;6.50;;;;;;;-146.18;100.00;67994.34;9982395;29;20056;-65
2021/05/03 19:20:30;;;;;;;12.07;7.00;;;;;;;-146.18;100.00;67994.34;9981190;29;20048;-66
2021/05/03 19:25:26;;;;;;;9.27;6.55;;;;;;;-146.18;100.00;67994.34;9967314;29;20071;-66
2021/05/03 19:30:43;;;;;;;8.10;6.25;;;;;;;-146.18;100.00;67994.34;9966543;29;20057;-66
2021/05/03 19:35:41;;;;;;;9.68;6.82;;;;;;;-146.18;100.00;67994.34;9980172;29;20056;-66
2021/05/03 19:40:38;;;;;;;8.85;6.63;;;;;;;-146.18;100.00;67994.34;9983434;29;20100;-65
2021/05/03 19:45:35;;;;;;;8.27;6.03;;;;;;;-146.18;100.00;67994.34;9968554;29;20055;-62
2021/05/03 19:50:37;;;;;;;8.90;6.75;;;;;;;-146.18;100.00;67994.34;9976777;29;20049;-65
2021/05/03 20:06:09;;;;;;;7.25;5.35;;;;;;;-146.18;100.00;67994.34;9974077;29;20056;-65
2021/05/03 20:11:07;;;;;;;8.80;6.68;;;;;;;-146.18;100.00;67994.34;9979199;29;20547;-61
2021/05/03 20:16:04;;;;;;;10.93;8.18;;;;;;;-146.18;100.00;67994.34;9962416;29;20118;-64
2021/05/03 20:21:02;;;;;;;9.50;7.13;;;;;;;-146.18;100.00;67994.34;9976663;29;20044;-69
2021/05/03 20:25:58;;;;;;;10.68;8.55;;;;;;;-146.18;100.00;67994.34;9969663;29;20499;-66
2021/05/03 20:30:54;;;;;;;11.75;9.40;;;;;;;-146.18;100.00;67994.34;9980149;29;20045;-65
2021/05/03 20:35:57;;;;;;;12.43;10.13;;;;;;;-146.18;100.00;67994.34;9986899;29;20052;-67
2021/05/03 20:40:54;;;;;;;;;;;;;;;-146.18;100.00;67994.34;9986552;29;20048;-68
2021/05/03 20:45:50;;;;;;;15.40;10.90;;;;;;;-146.18;100.00;67994.34;9983392;29;20616;-65
2021/05/03 20:50:46;;;;;;;15.38;12.73;;;;;;;-146.18;100.00;67994.34;9989849;29;20044;-68
2021/05/03 20:55:43;;;;;;;16.30;13.27;;;;;;;-146.18;100.00;67994.34;9982325;29;20048;-65
2021/05/03 21:00:39;;;;;;;15.32;12.88;;;;;;;-146.18;100.00;67994.34;9987274;29;20225;-65
2021/05/03 21:05:36;;;;;;;16.30;13.57;;;;;;;-146.18;100.00;67994.34;9979491;29;20052;-63
2021/05/03 21:10:35;;;;;;;18.95;14.18;;;;;;;-146.18;100.00;67994.34;9983523;29;20116;-65
2021/05/03 21:15:31;;;;;;;16.35;14.15;;;;;;;-146.18;100.00;67994.34;9986153;29;20055;-67
2021/05/03 21:20:27;;;;;;;18.20;15.95;;;;;;;-146.18;100.00;67994.34;9984220;29;20562;-67
2021/05/03 21:25:23;;;;;;;19.25;15.68;;;;;;;-146.18;100.00;67994.34;9993165;29;20051;-67
2021/05/03 21:30:19;;;;;;;20.08;15.90;;;;;;;-146.18;100.00;67994.34;9984965;29;20044;-67
2021/05/03 21:35:15;;;;;;;23.50;17.05;;;;;;;-146.18;100.00;67994.34;9982386;29;20084;-66
2021/05/03 21:40:12;;;;;;;21.77;16.65;;;;;;;-146.18;100.00;67994.34;9969094;29;20048;-66
2021/05/03 21:45:08;;;;;;;21.63;16.95;;;;;;;-146.18;100.00;67994.34;9988933;29;20103;-67
2021/05/03 21:50:06;;;;;;;20.70;18.50;;;;;;;-146.18;100.00;67994.34;9993813;29;20134;-66
2021/05/03 21:55:04;;;;;;;21.35;18.58;;;;;;;-146.18;100.00;67994.34;9991466;29;20143;-64
2021/05/03 22:00:00;;;;;;;22.83;18.83;;;;;;;-146.18;100.00;67994.34;9990274;29;20579;-68
2021/05/03 22:04:56;;;;;;;22.70;18.38;;;;;;;-146.18;100.00;67994.34;9989352;29;20388;-67
2021/05/03 22:09:52;;;;;;;22.63;19.35;;;;;;;-146.18;100.00;67994.34;9987858;29;20060;-65
2021/05/03 22:14:52;;;;;;;23.10;19.35;;;;;;;-146.18;100.00;67994.34;9978298;29;20063;-65
2021/05/03 22:19:54;;;;;;;23.02;18.85;;;;;;;-146.18;100.00;67994.34;9982244;29;20067;-67
2021/05/03 22:24:51;;;;;;;20.98;17.98;;;;;;;-146.18;100.00;67994.34;9992010;29;20088;-66
2021/05/03 22:29:47;;;;;;;22.27;18.30;;;;;;;-146.18;100.00;67994.34;9988060;29;20044;-66
2021/05/03 22:34:43;;;;;;;21.02;18.42;;;;;;;-146.18;100.00;67994.34;9983185;29;20071;-67
2021/05/03 23:04:52;;;;;;;19.60;16.37;;;;;;;-146.18;100.00;67994.34;9983598;29;19923;-62
2021/05/03 23:06:25;;;;;;;21.30;16.73;;;;;;;-146.18;100.00;67994.34;9980656;29;20142;-63
2021/05/03 23:21:45;;;;;;;21.30;16.92;;;;;;;-146.18;100.00;67994.34;9967784;29;20047;-67
2021/05/03 23:26:42;;;;;;;19.48;16.38;;;;;;;-146.18;100.00;67994.34;9988123;29;20048;-66
2021/05/03 23:31:38;;;;;;;24.20;18.55;;;;;;;-146.18;100.00;67994.34;9982560;29;20094;-67
2021/05/03 23:36:35;;;;;;;22.90;17.58;;;;;;;-146.18;100.00;67994.34;9983850;29;20047;-63
2021/05/03 23:41:31;;;;;;;22.40;17.55;;;;;;;-146.18;100.00;67994.34;9985076;29;20060;-65
2021/05/03 23:46:30;;;;;;;19.92;17.42;;;;;;;-146.18;100.00;67994.34;9988942;29;20466;-65
2021/05/03 23:51:27;;;;;;;19.92;16.80;;;;;;;-146.18;100.00;67994.34;9984247;29;20071;-64
2021/05/03 23:56:23;;;;;;;20.77;17.83;;;;;;;-146.18;100.00;67994.34;9985982;29;20531;-64
